This is the latest recevied weather packets stored in our database for station/object DH0DM-13. If no packets are shown the sender has not sent any weather packets the latest 10 day(s).
| Time | Temp. | Humidity | Pressure | Rain* | Wind** | Luminosity | Snow |
|---|---|---|---|---|---|---|---|
| 1777766886 | 16.11° C | 37% | 989.6 hPa | 0 mm | 3.58 m/s, 324° | - | - |
| 1777766285 | 16.11° C | 36% | 989.6 hPa | 0 mm | 5.36 m/s, 154° | - | - |
| 1777765684 | 16.67° C | 36% | 989.7 hPa | 0 mm | 0.45 m/s, 192° | - | - |
| 1777765084 | 16.11° C | 36% | 989.8 hPa | 0 mm | 6.26 m/s, 67° | - | - |
| 1777764482 | 16.11° C | 36% | 990 hPa | 0 mm | 6.26 m/s, 153° | - | - |
| 1777763881 | 16.11° C | 36% | 990.1 hPa | 0 mm | 4.92 m/s, 216° | - | - |
| 1777763281 | 16.11° C | 36% | 990 hPa | 0 mm | 4.92 m/s, 254° | - | - |
| 1777762680 | 16.11° C | 36% | 990.2 hPa | 0 mm | 2.68 m/s, 118° | - | - |
| 1777762079 | 16.67° C | 36% | 990.1 hPa | 0 mm | 2.68 m/s, 219° | - | - |
| 1777761478 | 16.67° C | 36% | 990.1 hPa | 0 mm | 2.68 m/s, 139° | - | - |
| 1777760877 | 17.22° C | 35% | 990.2 hPa | 0 mm | 4.02 m/s, 178° | - | - |
| 1777760276 | 16.67° C | 35% | 990.4 hPa | 0 mm | 0.89 m/s, 40° | - | - |
| 1777759675 | 17.22° C | 35% | 990.4 hPa | 0 mm | 0.89 m/s, 110° | - | - |
| 1777759074 | 17.22° C | 35% | 990.3 hPa | 0 mm | 2.68 m/s, 137° | - | - |
| 1777758474 | 16.67° C | 35% | 990.4 hPa | 0 mm | 2.68 m/s, 179° | - | - |
| 1777757873 | 16.67° C | 36% | 990.2 hPa | 0 mm | 0.89 m/s, 188° | - | - |
| 1777757272 | 16.67° C | 36% | 990.3 hPa | 0 mm | 3.58 m/s, 90° | - | - |
| 1777756671 | 16.67° C | 37% | 990.5 hPa | 0 mm | 0.89 m/s, 146° | - | - |
| 1777756070 | 16.67° C | 37% | 990.7 hPa | 0 mm | 1.34 m/s, 92° | - | - |
| 1777755469 | 16.67° C | 37% | 990.7 hPa | 0 mm | 0.89 m/s, 250° | - | - |
| 1777754868 | 17.22° C | 37% | 990.8 hPa | 0 mm | 0 m/s | - | - |
| 1777754267 | 16.67° C | 36% | 990.9 hPa | 0 mm | 0.89 m/s, 224° | - | - |
| 1777753666 | 16.67° C | 38% | 991 hPa | 0 mm | 0 m/s | - | - |
| 1777753065 | 15.56° C | 39% | 990.8 hPa | 0 mm | 2.24 m/s, 40° | - | - |
| 1777752465 | 15.56° C | 40% | 990.9 hPa | 0 mm | 0 m/s | - | - |
* Rain since midnight (hover to see other rain measurements)
** Current wind speed in m/s (hover to see current wind gust speed)